Time;durP1;ratioP1;P1;durP2;ratioP2;P2;SDS_P1;SDS_P2;PMS_P1;PMS_P2;Temp;Humidity;BMP_temperature;BMP_pressure;BME280_temperature;BME280_humidity;BME280_pressure;Samples;Min_cycle;Max_cycle;Signal;HPM_P1;HPM_P2
2023/04/30 00:01:10;;;;;;;12.17;8.10;;;;;;;;;;767203;182;922038;-60
2023/04/30 00:03:36;;;;;;;9.80;8.03;;;;;;;;;;763773;181;824987;-60
2023/04/30 00:06:02;;;;;;;12.73;8.30;;;;;;;;;;759565;182;917251;-60
2023/04/30 00:08:29;;;;;;;14.87;8.90;;;;;;;;;;764823;181;914653;-60
2023/04/30 00:10:54;;;;;;;13.50;9.83;;;;;;;;;;765354;182;917219;-60
2023/04/30 00:13:20;;;;;;;10.87;8.47;;;;;;;;;;752668;181;821510;-61
2023/04/30 00:15:45;;;;;;;17.37;10.17;;;;;;;;;;759161;182;818746;-60
2023/04/30 00:18:11;;;;;;;16.70;11.90;;;;;;;;;;763110;182;919320;-60
2023/04/30 00:20:37;;;;;;;13.20;10.47;;;;;;;;;;760933;182;921378;-60
2023/04/30 00:23:03;;;;;;;19.70;11.17;;;;;;;;;;760019;182;918520;-60
2023/04/30 00:25:29;;;;;;;15.83;11.60;;;;;;;;;;767721;181;912541;-60
2023/04/30 00:27:55;;;;;;;18.27;11.93;;;;;;;;;;762821;182;919515;-60
2023/04/30 00:30:21;;;;;;;21.70;12.87;;;;;;;;;;759839;182;914957;-60
2023/04/30 00:32:46;;;;;;;22.73;14.53;;;;;;;;;;760139;181;918252;-60
2023/04/30 00:35:12;;;;;;;15.80;13.37;;;;;;;;;;772543;182;970048;-60
2023/04/30 00:37:38;;;;;;;15.60;11.82;;;;;;;;;;761663;182;1020824;-60
2023/04/30 00:40:04;;;;;;;17.67;11.20;;;;;;;;;;764233;181;873527;-60
2023/04/30 00:42:30;;;;;;;14.50;11.73;;;;;;;;;;755265;184;918888;-60
2023/04/30 00:44:56;;;;;;;17.53;12.27;;;;;;;;;;750871;183;917292;-60
2023/04/30 00:47:22;;;;;;;14.07;10.53;;;;;;;;;;763459;182;916055;-60
2023/04/30 00:49:48;;;;;;;15.97;11.40;;;;;;;;;;767668;182;914048;-60
2023/04/30 00:52:13;;;;;;;14.43;10.60;;;;;;;;;;751751;181;916593;-60
2023/04/30 00:54:40;;;;;;;14.83;10.40;;;;;;;;;;755321;182;924178;-60
2023/04/30 00:57:05;;;;;;;13.13;10.20;;;;;;;;;;763328;181;905278;-60
2023/04/30 00:59:31;;;;;;;14.50;10.17;;;;;;;;;;771343;182;918357;-60
2023/04/30 01:01:57;;;;;;;11.20;9.57;;;;;;;;;;765638;182;921643;-60
2023/04/30 01:04:23;;;;;;;13.10;10.10;;;;;;;;;;763220;182;921031;-60
2023/04/30 01:06:49;;;;;;;14.10;11.73;;;;;;;;;;757277;184;919946;-60
2023/04/30 01:09:15;;;;;;;15.10;9.97;;;;;;;;;;761474;181;918532;-61
2023/04/30 01:11:40;;;;;;;11.67;9.17;;;;;;;;;;758031;182;818634;-60
2023/04/30 01:14:08;;;;;;;12.93;10.00;;;;;;;;;;764883;182;919304;-60
2023/04/30 01:16:35;;;;;;;14.30;11.57;;;;;;;;;;763312;182;818144;-60
2023/04/30 01:19:00;;;;;;;14.50;11.50;;;;;;;;;;763525;181;919584;-60
2023/04/30 01:21:26;;;;;;;15.80;10.60;;;;;;;;;;758447;182;914417;-60
2023/04/30 01:24:08;;;;;;;14.00;10.73;;;;;;;;;;764623;182;812932;-60
2023/04/30 01:26:34;;;;;;;15.47;10.60;;;;;;;;;;772748;180;820390;-60
2023/04/30 01:28:59;;;;;;;13.73;10.90;;;;;;;;;;763069;183;918403;-60
2023/04/30 01:31:25;;;;;;;12.50;10.00;;;;;;;;;;762130;183;921041;-61
2023/04/30 01:33:51;;;;;;;15.57;12.00;;;;;;;;;;772426;182;918356;-61
2023/04/30 01:36:23;;;;;;;13.13;10.40;;;;;;;;;;764151;182;918043;-60
2023/04/30 01:38:49;;;;;;;17.47;13.07;;;;;;;;;;763039;183;920744;-60
2023/04/30 01:41:16;;;;;;;16.13;11.27;;;;;;;;;;765808;182;923115;-61
2023/04/30 01:43:42;;;;;;;14.37;10.63;;;;;;;;;;767169;182;918010;-61
2023/04/30 01:46:09;;;;;;;12.60;9.80;;;;;;;;;;754324;183;919644;-61
2023/04/30 01:48:50;;;;;;;15.47;12.43;;;;;;;;;;756409;182;919414;-61
2023/04/30 01:51:20;;;;;;;14.07;11.07;;;;;;;;;;762227;183;884771;-60
2023/04/30 01:53:46;;;;;;;15.80;11.67;;;;;;;;;;763467;182;825172;-61
2023/04/30 01:56:12;;;;;;;17.57;12.17;;;;;;;;;;762836;182;923619;-61
2023/04/30 01:58:37;;;;;;;16.53;12.17;;;;;;;;;;769942;181;815695;-61
2023/04/30 02:01:03;;;;;;;16.47;12.70;;;;;;;;;;761350;182;918181;-61
2023/04/30 02:03:29;;;;;;;21.60;13.00;;;;;;;;;;769710;181;918709;-61
2023/04/30 02:05:55;;;;;;;14.63;11.13;;;;;;;;;;761531;181;918733;-60
2023/04/30 02:08:21;;;;;;;12.20;9.47;;;;;;;;;;760150;182;920280;-60
2023/04/30 02:10:47;;;;;;;12.73;8.87;;;;;;;;;;762670;181;918729;-60
2023/04/30 02:13:12;;;;;;;12.13;7.63;;;;;;;;;;764744;181;916127;-60
2023/04/30 02:15:38;;;;;;;11.30;7.40;;;;;;;;;;750781;183;1020986;-60
2023/04/30 02:18:04;;;;;;;10.57;7.10;;;;;;;;;;765972;182;920458;-60
2023/04/30 02:20:30;;;;;;;9.53;8.53;;;;;;;;;;765772;182;815800;-60
2023/04/30 02:22:56;;;;;;;14.03;8.40;;;;;;;;;;765101;182;913845;-61
2023/04/30 02:25:22;;;;;;;14.70;8.37;;;;;;;;;;763164;182;917512;-60
2023/04/30 02:27:49;;;;;;;9.13;7.07;;;;;;;;;;746530;183;920151;-60
2023/04/30 02:30:13;;;;;;;11.90;7.80;;;;;;;;;;752122;181;854154;-61
2023/04/30 02:32:39;;;;;;;12.83;8.87;;;;;;;;;;763225;182;918826;-60
2023/04/30 02:35:05;;;;;;;14.23;8.63;;;;;;;;;;768196;182;918508;-61
2023/04/30 02:37:31;;;;;;;14.90;8.18;;;;;;;;;;765545;182;919162;-60
2023/04/30 02:39:57;;;;;;;12.70;8.60;;;;;;;;;;763120;180;915119;-60
2023/04/30 02:42:23;;;;;;;18.80;10.03;;;;;;;;;;755544;183;920589;-60
2023/04/30 02:44:48;;;;;;;13.57;8.00;;;;;;;;;;762321;182;919509;-61
2023/04/30 02:47:14;;;;;;;18.17;9.02;;;;;;;;;;764142;182;918145;-60
2023/04/30 02:49:40;;;;;;;13.10;7.17;;;;;;;;;;761842;182;919275;-60
2023/04/30 02:52:08;;;;;;;13.00;7.33;;;;;;;;;;764293;182;918443;-60
2023/04/30 02:54:32;;;;;;;13.20;8.27;;;;;;;;;;767137;181;918274;-60
2023/04/30 02:56:58;;;;;;;9.97;8.03;;;;;;;;;;761837;182;919358;-61
2023/04/30 02:59:24;;;;;;;14.87;9.93;;;;;;;;;;768846;181;922418;-60
2023/04/30 03:01:49;;;;;;;13.90;6.37;;;;;;;;;;759867;182;923401;-60
2023/04/30 03:04:15;;;;;;;24.07;11.17;;;;;;;;;;761264;182;939615;-60
2023/04/30 03:06:41;;;;;;;16.67;8.83;;;;;;;;;;767798;182;920614;-60
2023/04/30 03:09:07;;;;;;;14.93;9.37;;;;;;;;;;768501;182;917687;-60
2023/04/30 03:11:36;;;;;;;14.52;9.27;;;;;;;;;;765976;182;919264;-60
2023/04/30 03:13:59;;;;;;;16.00;9.70;;;;;;;;;;762066;183;916199;-60
2023/04/30 03:16:24;;;;;;;13.43;8.37;;;;;;;;;;761025;182;916036;-60
2023/04/30 03:18:50;;;;;;;12.60;7.97;;;;;;;;;;757871;182;817476;-60
2023/04/30 03:21:16;;;;;;;18.93;8.70;;;;;;;;;;751416;184;819476;-60
2023/04/30 03:23:42;;;;;;;12.27;9.37;;;;;;;;;;765622;181;918911;-60
2023/04/30 03:26:08;;;;;;;14.40;8.30;;;;;;;;;;763248;182;918942;-60
2023/04/30 03:28:34;;;;;;;12.43;7.60;;;;;;;;;;765385;182;817244;-60
2023/04/30 03:31:03;;;;;;;10.20;7.35;;;;;;;;;;769642;182;918765;-60
2023/04/30 03:33:26;;;;;;;15.17;8.90;;;;;;;;;;764868;182;933871;-60
2023/04/30 03:35:52;;;;;;;10.83;7.80;;;;;;;;;;762551;182;861234;-60
2023/04/30 03:38:17;;;;;;;14.60;8.33;;;;;;;;;;766356;182;911431;-60
2023/04/30 03:40:43;;;;;;;18.00;8.27;;;;;;;;;;765949;182;922756;-61
2023/04/30 03:43:09;;;;;;;10.07;6.67;;;;;;;;;;763946;182;916542;-61
2023/04/30 03:45:35;;;;;;;9.67;7.80;;;;;;;;;;765226;182;914633;-63
2023/04/30 03:48:00;;;;;;;10.87;7.33;;;;;;;;;;761138;182;919667;-63
2023/04/30 03:50:26;;;;;;;11.90;7.90;;;;;;;;;;754679;182;921239;-60
2023/04/30 03:52:52;;;;;;;13.63;7.20;;;;;;;;;;755848;182;917064;-61
2023/04/30 03:55:18;;;;;;;11.23;7.77;;;;;;;;;;772942;182;720867;-65
2023/04/30 03:57:44;;;;;;;15.13;8.40;;;;;;;;;;763864;180;859975;-60
2023/04/30 04:00:12;;;;;;;12.63;7.83;;;;;;;;;;751534;186;912350;-60
2023/04/30 04:02:36;;;;;;;11.07;7.37;;;;;;;;;;767632;182;915458;-60
2023/04/30 04:05:02;;;;;;;14.37;7.50;;;;;;;;;;762653;182;819290;-60
2023/04/30 04:07:28;;;;;;;9.48;7.25;;;;;;;;;;766562;182;816238;-60
2023/04/30 04:09:54;;;;;;;10.37;7.53;;;;;;;;;;769139;181;919246;-60
2023/04/30 04:12:20;;;;;;;10.47;7.53;;;;;;;;;;749818;181;918035;-60
2023/04/30 04:14:45;;;;;;;15.53;7.57;;;;;;;;;;752507;183;918875;-60
2023/04/30 04:17:11;;;;;;;17.33;8.17;;;;;;;;;;763137;181;816245;-60
2023/04/30 04:19:37;;;;;;;10.80;7.73;;;;;;;;;;768277;180;861048;-60
2023/04/30 04:22:03;;;;;;;14.60;8.13;;;;;;;;;;762116;182;946055;-60
2023/04/30 04:24:29;;;;;;;12.53;8.20;;;;;;;;;;764364;181;914357;-60
2023/04/30 04:26:55;;;;;;;21.17;14.65;;;;;;;;;;754683;181;907558;-60
2023/04/30 04:29:20;;;;;;;31.17;18.27;;;;;;;;;;762839;181;869079;-60
2023/04/30 04:31:48;;;;;;;44.50;34.03;;;;;;;;;;764046;180;918418;-60
2023/04/30 04:34:12;;;;;;;22.17;18.60;;;;;;;;;;754028;182;918497;-60
2023/04/30 04:36:38;;;;;;;17.27;14.47;;;;;;;;;;755989;180;923911;-60
2023/04/30 04:39:04;;;;;;;14.07;9.57;;;;;;;;;;761123;181;918521;-60
2023/04/30 04:41:31;;;;;;;16.90;10.60;;;;;;;;;;765417;181;918238;-60
2023/04/30 04:43:56;;;;;;;11.40;9.03;;;;;;;;;;768163;181;916633;-60
2023/04/30 04:46:22;;;;;;;14.93;8.90;;;;;;;;;;760929;181;912461;-60
2023/04/30 04:48:48;;;;;;;15.20;10.40;;;;;;;;;;762821;182;919634;-60
2023/04/30 04:51:13;;;;;;;13.90;9.40;;;;;;;;;;766302;182;950290;-60
2023/04/30 04:53:39;;;;;;;11.83;9.57;;;;;;;;;;761487;182;915855;-60
2023/04/30 04:56:06;;;;;;;16.80;9.97;;;;;;;;;;763577;182;918157;-64
2023/04/30 04:58:31;;;;;;;15.07;9.53;;;;;;;;;;768059;182;912190;-60
2023/04/30 05:00:58;;;;;;;11.00;8.67;;;;;;;;;;766289;182;916000;-60
2023/04/30 05:03:23;;;;;;;14.23;8.43;;;;;;;;;;765540;181;915362;-61
2023/04/30 05:05:50;;;;;;;14.60;9.45;;;;;;;;;;767661;181;918444;-61
2023/04/30 05:08:16;;;;;;;11.70;8.93;;;;;;;;;;756053;183;912167;-60
2023/04/30 05:10:41;;;;;;;12.23;8.67;;;;;;;;;;761259;182;917178;-61
2023/04/30 05:13:07;;;;;;;15.00;8.63;;;;;;;;;;761880;182;911167;-61
2023/04/30 05:15:33;;;;;;;13.63;8.50;;;;;;;;;;770162;182;917258;-60
2023/04/30 05:17:59;;;;;;;12.67;8.20;;;;;;;;;;754482;182;916376;-61
2023/04/30 05:20:25;;;;;;;15.47;10.10;;;;;;;;;;758915;182;893897;-61
2023/04/30 05:22:51;;;;;;;12.00;8.63;;;;;;;;;;766268;182;923896;-60
2023/04/30 05:25:16;;;;;;;10.73;8.03;;;;;;;;;;756710;182;915782;-60
2023/04/30 05:27:42;;;;;;;19.97;9.83;;;;;;;;;;759203;182;920533;-60
2023/04/30 05:30:09;;;;;;;15.67;9.90;;;;;;;;;;767211;182;921199;-60
2023/04/30 05:32:34;;;;;;;13.83;8.27;;;;;;;;;;765981;180;911680;-61
2023/04/30 05:35:00;;;;;;;12.50;7.93;;;;;;;;;;765261;181;918556;-60
2023/04/30 05:37:26;;;;;;;16.50;9.47;;;;;;;;;;762097;179;920926;-61
2023/04/30 05:39:52;;;;;;;13.07;9.60;;;;;;;;;;757802;183;919882;-60
2023/04/30 05:42:18;;;;;;;20.80;12.63;;;;;;;;;;766492;181;825350;-61
2023/04/30 05:44:44;;;;;;;15.17;10.73;;;;;;;;;;759361;182;919306;-61
2023/04/30 05:47:10;;;;;;;23.03;13.60;;;;;;;;;;758966;182;913496;-60
2023/04/30 05:49:35;;;;;;;16.93;11.20;;;;;;;;;;759303;182;918384;-60
2023/04/30 05:52:02;;;;;;;23.17;10.17;;;;;;;;;;764238;180;912564;-61
2023/04/30 05:54:27;;;;;;;13.85;10.65;;;;;;;;;;766910;182;947082;-61
2023/04/30 05:56:53;;;;;;;14.27;9.03;;;;;;;;;;760744;182;919374;-60
2023/04/30 05:59:19;;;;;;;15.27;8.37;;;;;;;;;;767520;182;923632;-61
2023/04/30 06:01:45;;;;;;;31.43;12.00;;;;;;;;;;764798;182;919410;-60
2023/04/30 06:04:10;;;;;;;19.00;9.13;;;;;;;;;;768255;181;914046;-61
2023/04/30 06:06:36;;;;;;;11.40;7.97;;;;;;;;;;769777;181;856125;-60
2023/04/30 06:09:02;;;;;;;12.43;8.30;;;;;;;;;;761909;182;936722;-60
2023/04/30 06:11:28;;;;;;;11.43;8.10;;;;;;;;;;766119;182;917232;-60
2023/04/30 06:13:54;;;;;;;11.00;8.40;;;;;;;;;;764617;181;905019;-61
2023/04/30 06:16:20;;;;;;;14.40;9.30;;;;;;;;;;757261;182;1726444;-60
2023/04/30 06:18:46;;;;;;;14.70;9.40;;;;;;;;;;758982;182;919199;-61
2023/04/30 06:21:11;;;;;;;13.50;9.40;;;;;;;;;;760652;182;916603;-61
2023/04/30 06:23:37;;;;;;;14.40;9.50;;;;;;;;;;764384;182;923217;-60
2023/04/30 06:26:03;;;;;;;15.40;8.77;;;;;;;;;;753331;186;912494;-60
2023/04/30 06:28:29;;;;;;;16.47;10.03;;;;;;;;;;757146;183;915908;-61
2023/04/30 06:30:55;;;;;;;14.10;9.70;;;;;;;;;;755922;182;922870;-60
2023/04/30 06:33:21;;;;;;;13.10;9.30;;;;;;;;;;764303;182;920361;-61
2023/04/30 06:35:47;;;;;;;15.57;8.20;;;;;;;;;;770492;182;815610;-60
2023/04/30 06:38:12;;;;;;;13.57;9.13;;;;;;;;;;759147;181;817669;-61
2023/04/30 06:40:38;;;;;;;18.60;10.60;;;;;;;;;;769068;182;633131;-61
2023/04/30 06:43:04;;;;;;;17.80;10.83;;;;;;;;;;764529;180;622882;-61
2023/04/30 06:45:30;;;;;;;14.90;9.00;;;;;;;;;;770046;182;629298;-61
2023/04/30 06:47:58;;;;;;;11.93;8.70;;;;;;;;;;770355;180;625933;-61
2023/04/30 06:50:22;;;;;;;11.40;8.10;;;;;;;;;;764545;182;623335;-61
2023/04/30 06:52:48;;;;;;;13.75;8.70;;;;;;;;;;762308;180;848205;-61
2023/04/30 06:55:13;;;;;;;12.20;8.27;;;;;;;;;;761776;181;918218;-60
2023/04/30 06:57:39;;;;;;;18.03;12.77;;;;;;;;;;753028;183;905075;-61
2023/04/30 07:00:06;;;;;;;15.60;9.43;;;;;;;;;;767801;183;932548;-61
2023/04/30 07:02:31;;;;;;;15.47;9.00;;;;;;;;;;757221;182;920956;-61
2023/04/30 07:04:57;;;;;;;14.23;9.10;;;;;;;;;;759242;182;919318;-61
2023/04/30 07:07:23;;;;;;;11.53;9.33;;;;;;;;;;770188;182;894781;-61
2023/04/30 07:09:49;;;;;;;25.13;10.60;;;;;;;;;;750068;184;919895;-61
2023/04/30 07:12:15;;;;;;;12.10;9.10;;;;;;;;;;763290;182;919219;-61
2023/04/30 07:14:41;;;;;;;12.80;7.77;;;;;;;;;;766784;181;918574;-60
2023/04/30 07:17:07;;;;;;;13.20;9.13;;;;;;;;;;760832;182;918373;-61
2023/04/30 07:19:32;;;;;;;10.67;8.10;;;;;;;;;;757382;182;917151;-62
2023/04/30 07:21:58;;;;;;;11.73;7.47;;;;;;;;;;759846;182;918262;-61
2023/04/30 07:24:24;;;;;;;10.40;6.70;;;;;;;;;;760509;180;919031;-61
2023/04/30 07:26:50;;;;;;;11.70;7.37;;;;;;;;;;754607;182;919384;-60
2023/04/30 07:29:17;;;;;;;10.80;7.03;;;;;;;;;;755013;182;919057;-61
2023/04/30 07:31:42;;;;;;;9.83;7.30;;;;;;;;;;764146;182;914002;-61
2023/04/30 07:34:08;;;;;;;15.40;8.07;;;;;;;;;;743956;186;921605;-61
2023/04/30 07:36:33;;;;;;;10.60;8.13;;;;;;;;;;758876;182;920379;-61
2023/04/30 07:38:59;;;;;;;10.93;7.70;;;;;;;;;;767225;182;818850;-62
2023/04/30 07:41:25;;;;;;;13.38;7.68;;;;;;;;;;763109;179;816474;-61
2023/04/30 07:43:51;;;;;;;10.00;8.17;;;;;;;;;;747047;186;816790;-61
2023/04/30 07:46:17;;;;;;;9.97;8.23;;;;;;;;;;754336;182;922283;-62
2023/04/30 07:48:43;;;;;;;13.40;8.97;;;;;;;;;;768269;182;627311;-61
2023/04/30 07:51:08;;;;;;;12.07;7.63;;;;;;;;;;762098;182;818013;-61
2023/04/30 07:53:34;;;;;;;11.77;7.90;;;;;;;;;;760119;181;819440;-62
2023/04/30 07:56:00;;;;;;;13.97;8.17;;;;;;;;;;772019;182;817789;-63
2023/04/30 07:58:26;;;;;;;11.80;7.27;;;;;;;;;;760219;182;915060;-61
2023/04/30 08:00:52;;;;;;;10.38;6.90;;;;;;;;;;762739;182;918564;-61
2023/04/30 08:03:18;;;;;;;17.03;9.00;;;;;;;;;;761608;182;919641;-62
2023/04/30 08:05:45;;;;;;;14.10;7.13;;;;;;;;;;766276;181;914732;-60
2023/04/30 08:08:09;;;;;;;12.50;8.00;;;;;;;;;;763436;182;950572;-61
2023/04/30 08:10:36;;;;;;;15.57;8.80;;;;;;;;;;768112;182;926970;-61
2023/04/30 08:13:01;;;;;;;10.73;6.80;;;;;;;;;;766061;182;815015;-61
2023/04/30 08:15:27;;;;;;;17.43;8.67;;;;;;;;;;761821;182;916729;-61
2023/04/30 08:17:53;;;;;;;13.00;7.90;;;;;;;;;;757150;182;923814;-61
2023/04/30 08:20:19;;;;;;;19.20;7.97;;;;;;;;;;767970;181;914689;-61
2023/04/30 08:22:45;;;;;;;23.50;7.43;;;;;;;;;;766000;181;915269;-62
2023/04/30 08:25:11;;;;;;;8.27;4.43;;;;;;;;;;761147;182;918348;-62
2023/04/30 08:27:37;;;;;;;11.73;5.37;;;;;;;;;;767809;182;916605;-63
2023/04/30 08:30:03;;;;;;;16.03;8.27;;;;;;;;;;762553;182;921078;-62
2023/04/30 08:32:29;;;;;;;15.00;7.35;;;;;;;;;;759367;182;919299;-61
2023/04/30 08:34:56;;;;;;;12.87;6.90;;;;;;;;;;766026;181;817872;-62
2023/04/30 08:37:22;;;;;;;11.03;8.43;;;;;;;;;;763567;181;892034;-62
2023/04/30 08:39:48;;;;;;;8.57;5.70;;;;;;;;;;760581;182;921200;-60
2023/04/30 08:42:14;;;;;;;13.37;7.70;;;;;;;;;;757889;182;919129;-60
2023/04/30 08:44:42;;;;;;;13.67;6.20;;;;;;;;;;765570;182;889074;-61
2023/04/30 08:47:05;;;;;;;11.07;5.27;;;;;;;;;;759325;182;920312;-61
2023/04/30 08:49:32;;;;;;;11.03;6.77;;;;;;;;;;759726;182;918739;-62
2023/04/30 08:51:59;;;;;;;9.43;5.83;;;;;;;;;;769956;182;915492;-62
2023/04/30 08:54:23;;;;;;;11.10;7.33;;;;;;;;;;758847;182;924656;-62
2023/04/30 08:56:49;;;;;;;10.10;6.93;;;;;;;;;;764683;182;920394;-61
2023/04/30 08:59:15;;;;;;;8.03;5.43;;;;;;;;;;768065;182;817544;-62
2023/04/30 09:01:41;;;;;;;13.17;6.07;;;;;;;;;;765543;181;816983;-62
2023/04/30 09:04:07;;;;;;;10.37;7.10;;;;;;;;;;759969;182;904122;-61
2023/04/30 09:06:33;;;;;;;10.60;6.93;;;;;;;;;;761784;181;916905;-61
2023/04/30 09:08:59;;;;;;;7.67;5.17;;;;;;;;;;764949;182;815098;-61
2023/04/30 09:11:25;;;;;;;10.73;6.43;;;;;;;;;;767283;180;918823;-62
2023/04/30 09:13:52;;;;;;;10.07;6.20;;;;;;;;;;759694;179;923683;-62
2023/04/30 09:16:18;;;;;;;6.47;4.80;;;;;;;;;;766877;180;919577;-62
2023/04/30 09:18:45;;;;;;;6.20;4.60;;;;;;;;;;765277;181;917898;-62
2023/04/30 09:21:10;;;;;;;8.87;5.37;;;;;;;;;;762930;181;919471;-62
2023/04/30 09:23:36;;;;;;;6.80;3.97;;;;;;;;;;763123;181;931491;-61
2023/04/30 09:26:02;;;;;;;7.90;5.90;;;;;;;;;;762810;181;933711;-62
2023/04/30 09:28:28;;;;;;;13.10;4.90;;;;;;;;;;762350;181;919490;-62
2023/04/30 09:30:53;;;;;;;9.60;5.63;;;;;;;;;;761931;180;922718;-61
2023/04/30 09:33:19;;;;;;;8.05;5.60;;;;;;;;;;769899;182;863198;-62
2023/04/30 09:35:45;;;;;;;7.93;5.10;;;;;;;;;;765635;181;919520;-62
2023/04/30 09:38:25;;;;;;;7.32;4.75;;;;;;;;;;759312;182;936871;-63
2023/04/30 09:40:51;;;;;;;5.97;4.23;;;;;;;;;;762576;182;857481;-62
2023/04/30 09:43:17;;;;;;;12.07;5.33;;;;;;;;;;767374;182;918139;-62
2023/04/30 09:45:43;;;;;;;9.37;5.50;;;;;;;;;;761473;182;918759;-62
2023/04/30 09:48:09;;;;;;;6.77;4.47;;;;;;;;;;758923;182;915094;-63
2023/04/30 09:50:39;;;;;;;10.00;4.77;;;;;;;;;;763915;182;817090;-62
2023/04/30 09:53:04;;;;;;;7.07;5.37;;;;;;;;;;757120;183;852108;-62
2023/04/30 09:55:30;;;;;;;6.60;5.07;;;;;;;;;;758534;181;921195;-62
2023/04/30 09:57:55;;;;;;;12.00;5.20;;;;;;;;;;764969;182;918354;-62
2023/04/30 10:00:21;;;;;;;9.47;5.40;;;;;;;;;;760545;183;918235;-62
2023/04/30 10:02:47;;;;;;;12.60;6.00;;;;;;;;;;751449;182;920063;-62
2023/04/30 10:05:13;;;;;;;9.20;4.90;;;;;;;;;;762879;182;917699;-62
2023/04/30 10:07:39;;;;;;;19.80;10.17;;;;;;;;;;766330;182;919479;-62
2023/04/30 10:10:06;;;;;;;7.47;4.60;;;;;;;;;;762313;182;922483;-63
2023/04/30 10:12:34;;;;;;;8.50;6.07;;;;;;;;;;759224;182;921654;-63
2023/04/30 10:15:04;;;;;;;8.57;5.03;;;;;;;;;;768677;182;818652;-63
2023/04/30 10:17:30;;;;;;;8.27;5.00;;;;;;;;;;765016;182;821632;-64
2023/04/30 10:19:56;;;;;;;10.67;4.63;;;;;;;;;;765754;182;918847;-62
2023/04/30 10:22:22;;;;;;;18.80;13.73;;;;;;;;;;767278;181;718316;-62
2023/04/30 10:24:48;;;;;;;12.33;10.73;;;;;;;;;;772306;182;816288;-64
2023/04/30 10:27:14;;;;;;;6.23;3.90;;;;;;;;;;763316;181;919867;-62
2023/04/30 10:29:40;;;;;;;6.37;4.50;;;;;;;;;;758932;182;917975;-63
2023/04/30 10:32:05;;;;;;;7.93;5.40;;;;;;;;;;764899;182;820078;-62
2023/04/30 10:34:31;;;;;;;9.13;5.80;;;;;;;;;;752676;185;932843;-63
2023/04/30 10:36:58;;;;;;;7.17;4.60;;;;;;;;;;754533;183;915465;-64
2023/04/30 10:39:26;;;;;;;8.73;4.20;;;;;;;;;;762916;182;917634;-63
2023/04/30 10:41:49;;;;;;;6.03;4.03;;;;;;;;;;769112;182;939138;-62
2023/04/30 10:44:15;;;;;;;6.70;4.50;;;;;;;;;;766592;181;920836;-63
2023/04/30 10:46:40;;;;;;;9.18;4.22;;;;;;;;;;760165;182;919011;-63
2023/04/30 10:49:06;;;;;;;7.60;3.17;;;;;;;;;;765984;182;903171;-62
2023/04/30 10:51:38;;;;;;;7.10;4.87;;;;;;;;;;757959;182;918814;-63
2023/04/30 10:54:04;;;;;;;6.00;4.20;;;;;;;;;;759030;182;918367;-62
2023/04/30 10:56:30;;;;;;;4.57;3.17;;;;;;;;;;763091;182;919620;-62
2023/04/30 10:58:56;;;;;;;8.00;3.90;;;;;;;;;;752611;184;815405;-63
2023/04/30 11:01:22;;;;;;;6.50;3.60;;;;;;;;;;736000;189;918396;-62
2023/04/30 11:03:53;;;;;;;5.47;3.70;;;;;;;;;;762216;181;918692;-62
2023/04/30 11:06:20;;;;;;;6.53;3.60;;;;;;;;;;764134;182;920034;-61
2023/04/30 11:08:45;;;;;;;6.83;3.50;;;;;;;;;;763482;182;920458;-63
2023/04/30 11:11:13;;;;;;;7.97;4.23;;;;;;;;;;764677;182;817893;-62
2023/04/30 11:13:39;;;;;;;4.70;2.80;;;;;;;;;;762810;182;920027;-63
2023/04/30 11:16:04;;;;;;;4.93;3.67;;;;;;;;;;770488;181;922371;-62
2023/04/30 11:18:31;;;;;;;5.27;3.20;;;;;;;;;;762096;180;818876;-62
2023/04/30 11:20:56;;;;;;;4.40;2.67;;;;;;;;;;762536;181;827959;-62
2023/04/30 11:23:22;;;;;;;6.93;3.10;;;;;;;;;;763462;182;919338;-63
2023/04/30 11:25:48;;;;;;;9.00;3.27;;;;;;;;;;767180;182;817967;-63
2023/04/30 11:28:15;;;;;;;5.70;2.23;;;;;;;;;;761997;182;943657;-62
2023/04/30 11:30:40;;;;;;;4.30;2.50;;;;;;;;;;751255;183;919282;-63
2023/04/30 11:33:06;;;;;;;6.20;3.00;;;;;;;;;;763816;181;916947;-62
2023/04/30 11:35:32;;;;;;;8.70;3.27;;;;;;;;;;766036;182;918908;-63
2023/04/30 11:37:58;;;;;;;6.30;3.47;;;;;;;;;;762860;181;926960;-63
2023/04/30 11:40:24;;;;;;;5.53;2.90;;;;;;;;;;766389;182;918676;-62
2023/04/30 11:42:49;;;;;;;4.47;3.20;;;;;;;;;;764679;179;921012;-63
2023/04/30 11:45:16;;;;;;;3.05;2.28;;;;;;;;;;764225;182;919350;-63
2023/04/30 11:47:45;;;;;;;5.80;4.67;;;;;;;;;;766730;182;917690;-64
2023/04/30 11:50:11;;;;;;;4.40;2.70;;;;;;;;;;763959;181;920103;-64
2023/04/30 11:52:38;;;;;;;2.57;1.63;;;;;;;;;;762000;182;921328;-63
2023/04/30 11:55:06;;;;;;;4.57;2.80;;;;;;;;;;767432;182;920207;-63
2023/04/30 11:57:34;;;;;;;7.80;3.37;;;;;;;;;;766721;182;905599;-62
2023/04/30 12:00:00;;;;;;;3.40;2.20;;;;;;;;;;764061;181;915596;-63
2023/04/30 12:02:26;;;;;;;9.17;2.90;;;;;;;;;;760187;182;912046;-62
2023/04/30 12:04:52;;;;;;;4.93;2.83;;;;;;;;;;762640;182;877524;-62
2023/04/30 12:07:18;;;;;;;8.27;3.00;;;;;;;;;;762658;182;915690;-62
2023/04/30 12:09:50;;;;;;;8.17;2.83;;;;;;;;;;767765;182;786515;-63
2023/04/30 12:12:15;;;;;;;5.00;2.97;;;;;;;;;;765149;179;758819;-63
2023/04/30 12:14:42;;;;;;;4.63;2.80;;;;;;;;;;756398;184;723372;-63
2023/04/30 12:17:07;;;;;;;5.03;2.90;;;;;;;;;;757603;182;919319;-64
2023/04/30 12:19:33;;;;;;;5.63;2.83;;;;;;;;;;764708;182;879429;-62
2023/04/30 12:21:59;;;;;;;7.93;3.93;;;;;;;;;;767324;182;768303;-64
2023/04/30 12:24:25;;;;;;;6.70;2.90;;;;;;;;;;767790;182;914035;-63
2023/04/30 12:26:51;;;;;;;4.03;2.73;;;;;;;;;;762920;182;918407;-62
2023/04/30 12:29:16;;;;;;;5.83;2.93;;;;;;;;;;764613;182;816677;-62
2023/04/30 12:31:42;;;;;;;4.93;2.40;;;;;;;;;;760856;182;920440;-63
2023/04/30 12:34:08;;;;;;;5.07;3.03;;;;;;;;;;768387;182;621285;-64
2023/04/30 12:36:35;;;;;;;5.63;2.80;;;;;;;;;;766690;182;631748;-63
2023/04/30 12:39:02;;;;;;;5.13;2.43;;;;;;;;;;764058;181;825285;-62
2023/04/30 12:41:28;;;;;;;4.80;3.00;;;;;;;;;;767162;180;923292;-63
2023/04/30 12:43:54;;;;;;;4.13;2.70;;;;;;;;;;765272;181;916719;-63
2023/04/30 12:46:25;;;;;;;4.00;2.70;;;;;;;;;;764703;182;879609;-63
2023/04/30 12:48:51;;;;;;;5.90;2.80;;;;;;;;;;760095;182;914304;-61
2023/04/30 12:51:16;;;;;;;4.20;2.93;;;;;;;;;;765452;181;913719;-63
2023/04/30 12:53:43;;;;;;;14.03;2.80;;;;;;;;;;764846;182;915296;-63
2023/04/30 12:56:11;;;;;;;5.70;2.80;;;;;;;;;;771281;181;914772;-64
2023/04/30 12:58:36;;;;;;;4.83;2.10;;;;;;;;;;756104;183;822532;-64
2023/04/30 13:01:01;;;;;;;7.00;4.33;;;;;;;;;;765341;181;919031;-63
2023/04/30 13:03:27;;;;;;;5.00;2.47;;;;;;;;;;767615;181;911436;-63
2023/04/30 13:05:53;;;;;;;4.43;2.20;;;;;;;;;;761742;182;918303;-63
2023/04/30 13:08:19;;;;;;;5.00;3.23;;;;;;;;;;757403;182;918760;-69
2023/04/30 13:10:45;;;;;;;4.67;2.80;;;;;;;;;;769641;181;918878;-64
2023/04/30 13:13:11;;;;;;;4.33;2.70;;;;;;;;;;759531;180;921953;-63
2023/04/30 13:15:37;;;;;;;5.12;3.28;;;;;;;;;;749838;182;918634;-64
2023/04/30 13:18:02;;;;;;;5.13;2.50;;;;;;;;;;766535;181;807427;-63
2023/04/30 13:20:28;;;;;;;6.63;2.70;;;;;;;;;;771488;181;919047;-63
2023/04/30 13:22:54;;;;;;;8.20;3.30;;;;;;;;;;761368;182;922473;-64
2023/04/30 13:25:21;;;;;;;7.07;3.50;;;;;;;;;;756213;182;916432;-64
2023/04/30 13:27:46;;;;;;;4.27;2.87;;;;;;;;;;751749;184;923358;-63
2023/04/30 13:30:12;;;;;;;4.73;2.97;;;;;;;;;;760826;182;915022;-65
2023/04/30 13:32:38;;;;;;;6.37;2.50;;;;;;;;;;764982;182;915314;-64
2023/04/30 13:35:04;;;;;;;4.80;2.23;;;;;;;;;;769675;182;920805;-64
2023/04/30 13:37:30;;;;;;;5.10;3.53;;;;;;;;;;760496;182;917952;-63
2023/04/30 13:39:56;;;;;;;6.40;2.10;;;;;;;;;;764592;182;918869;-64
2023/04/30 13:42:22;;;;;;;5.70;3.10;;;;;;;;;;760486;182;820180;-63
2023/04/30 13:44:48;;;;;;;5.20;4.43;;;;;;;;;;768330;181;913176;-63
2023/04/30 13:47:14;;;;;;;3.73;2.40;;;;;;;;;;762380;181;946736;-64
2023/04/30 13:49:39;;;;;;;7.07;2.43;;;;;;;;;;764280;182;925270;-63
2023/04/30 13:52:05;;;;;;;6.20;3.80;;;;;;;;;;766823;182;922822;-63
2023/04/30 13:54:31;;;;;;;4.80;2.53;;;;;;;;;;765537;182;938379;-66
2023/04/30 13:56:58;;;;;;;8.80;3.70;;;;;;;;;;750924;183;916021;-64
2023/04/30 13:59:23;;;;;;;4.57;2.60;;;;;;;;;;767440;182;872329;-63
2023/04/30 14:01:49;;;;;;;5.20;2.30;;;;;;;;;;765134;181;917116;-63
2023/04/30 14:04:14;;;;;;;5.20;2.87;;;;;;;;;;768304;179;921602;-64
2023/04/30 14:06:40;;;;;;;3.93;2.40;;;;;;;;;;755972;182;913831;-64
2023/04/30 14:09:06;;;;;;;4.40;2.27;;;;;;;;;;758001;182;915733;-63
2023/04/30 14:11:32;;;;;;;4.70;3.03;;;;;;;;;;765388;182;858788;-63